Hanover, Maryland
Current Conditions -  °F | °C
As of 11:54 AM on Saturday 20 Dec 2014 (Local Time) from KBWI Reporting Station
Broken Clouds Broken Clouds  
Wind Chill: 34°   Ceiling: 18000
Heat Index: 34°   Visibility: 10mi
Dew Point: 21°   Wind: 0mph
Humidity: 59%   Direction: NA
Pressure: 30.29"   Gusts: NA
Location:  39.17°N, 76.74°W
Report Text: KBWI 201654Z 00000KT 10SM BKN180 BKN250 01/M06 A3029 RMK AO2 SLP257 VIRGA ALQDS T00111061
Loading
Personal Weather Stations






























Interactive Weather Map New forecast layout! Learn more

10-Day Weather Forecast

Advertisements
Track Severe Weather on mobile